Time;durP1;ratioP1;P1;durP2;ratioP2;P2;SDS_P1;SDS_P2;PMS_P1;PMS_P2;Temp;Humidity;BMP_temperature;BMP_pressure;BME280_temperature;BME280_humidity;BME280_pressure;Samples;Min_cycle;Max_cycle;Signal;HPM_P1;HPM_P2
2024/01/03 00:01:31;;;;;;;;;;;3.40;92.50;;;;;;4119427;28;19949;-85
2024/01/03 00:06:34;;;;;;;;;;;3.40;92.30;;;;;;4131876;28;20027;-85
2024/01/03 00:08:57;;;;;;;;;;;3.50;92.40;;;;;;4111097;28;20441;-85
2024/01/03 00:11:20;;;;;;;;;;;3.60;92.30;;;;;;4131957;28;20067;-84
2024/01/03 00:13:49;;;;;;;;;;;3.60;92.10;;;;;;4129559;28;19980;-87
2024/01/03 00:16:19;;;;;;;;;;;3.60;92.20;;;;;;4121780;28;19913;-85
2024/01/03 00:18:51;;;;;;;;;;;3.70;92.60;;;;;;4127301;28;19925;-83
2024/01/03 00:21:25;;;;;;;;;;;3.70;92.40;;;;;;4114397;28;19949;-87
2024/01/03 00:23:49;;;;;;;;;;;3.70;91.90;;;;;;4115570;28;19968;-87
2024/01/03 00:26:09;;;;;;;;;;;3.60;91.80;;;;;;4120091;28;20016;-88
2024/01/03 00:28:28;;;;;;;;;;;3.50;92.10;;;;;;4137018;28;20117;-85
2024/01/03 00:30:50;;;;;;;;;;;3.60;92.30;;;;;;4131059;28;20302;-85
2024/01/03 00:33:10;;;;;;;;;;;3.60;92.20;;;;;;4121328;28;20340;-87
2024/01/03 00:35:44;;;;;;;;;;;3.80;92.10;;;;;;4131566;28;20061;-85
2024/01/03 00:38:19;;;;;;;;;;;3.60;92.40;;;;;;4128533;28;20027;-84
2024/01/03 00:40:52;;;;;;;;;;;3.70;92.30;;;;;;4131445;28;19925;-86
2024/01/03 00:43:14;;;;;;;;;;;3.60;92.20;;;;;;4137424;28;19968;-87
2024/01/03 00:45:39;;;;;;;;;;;3.50;92.30;;;;;;4133243;28;20049;-85
2024/01/03 00:47:59;;;;;;;;;;;3.60;92.50;;;;;;4126879;28;19936;-85
2024/01/03 00:50:23;;;;;;;;;;;3.60;92.20;;;;;;4114994;28;20494;-84
2024/01/03 00:55:42;;;;;;;;;;;3.70;92.20;;;;;;4129249;28;19924;-88
2024/01/03 00:58:05;;;;;;;;;;;3.40;92.90;;;;;;4119607;28;19929;-87
2024/01/03 01:00:32;;;;;;;;;;;3.40;92.90;;;;;;4119334;28;19985;-87
2024/01/03 01:02:52;;;;;;;;;;;3.50;92.80;;;;;;4118070;28;19942;-84
2024/01/03 01:05:11;;;;;;;;;;;3.50;93.20;;;;;;4137588;28;20013;-85
2024/01/03 01:07:38;;;;;;;;;;;3.60;93.40;;;;;;4128493;28;19924;-87
2024/01/03 01:10:04;;;;;;;;;;;3.50;92.60;;;;;;4114178;28;20501;-87
2024/01/03 01:12:27;;;;;;;;;;;3.60;92.70;;;;;;4129069;28;19921;-86
2024/01/03 01:15:03;;;;;;;;;;;3.60;92.90;;;;;;4131133;28;19941;-84
2024/01/03 01:17:24;;;;;;;;;;;3.60;92.50;;;;;;4117942;28;19929;-86
2024/01/03 01:19:56;;;;;;;;;;;3.60;92.90;;;;;;4128345;28;19980;-86
2024/01/03 01:22:33;;;;;;;;;;;3.50;93.00;;;;;;4114523;28;19973;-84
2024/01/03 01:24:56;;;;;;;;;;;3.60;93.10;;;;;;4129056;28;19925;-87
2024/01/03 01:27:23;;;;;;;;;;;3.60;92.70;;;;;;4128540;28;19973;-83
2024/01/03 01:30:04;;;;;;;;;;;3.80;92.50;;;;;;4128905;28;19921;-86
2024/01/03 01:32:23;;;;;;;;;;;3.90;92.50;;;;;;4130518;28;20481;-85
2024/01/03 01:34:56;;;;;;;;;;;4.00;92.30;;;;;;4125195;28;19941;-88
2024/01/03 01:37:22;;;;;;;;;;;3.90;92.00;;;;;;4125957;28;19924;-86
2024/01/03 01:39:59;;;;;;;;;;;3.90;92.80;;;;;;4107525;28;20008;-86
2024/01/03 01:42:22;;;;;;;;;;;3.90;92.10;;;;;;4115243;28;20148;-87
2024/01/03 01:44:50;;;;;;;;;;;4.00;92.50;;;;;;4128033;28;19924;-85
2024/01/03 01:47:11;;;;;;;;;;;4.10;92.20;;;;;;4113597;28;19972;-86
2024/01/03 01:49:36;;;;;;;;;;;4.20;92.10;;;;;;4129016;28;20023;-85
2024/01/03 01:51:59;;;;;;;;;;;4.10;92.20;;;;;;4123192;28;19929;-88
2024/01/03 01:54:23;;;;;;;;;;;4.20;92.10;;;;;;4136285;23;19929;-85
2024/01/03 01:56:43;;;;;;;;;;;4.20;92.30;;;;;;4139029;28;19920;-86
2024/01/03 01:59:08;;;;;;;;;;;4.30;92.00;;;;;;4133117;28;19920;-85
2024/01/03 02:01:09;;;;;;;;;;;4.20;92.00;;;;;;4156041;28;19932;-84
2024/01/03 02:03:10;;;;;;;;;;;4.20;91.80;;;;;;4126666;28;19926;-84
2024/01/03 02:05:13;;;;;;;;;;;4.00;91.90;;;;;;4131740;28;19934;-86
2024/01/03 02:07:14;;;;;;;;;;;4.00;92.10;;;;;;4132923;28;19921;-85
2024/01/03 02:09:15;;;;;;;;;;;4.00;92.10;;;;;;4115405;28;19948;-85
2024/01/03 02:11:22;;;;;;;;;;;3.90;92.20;;;;;;4146923;28;19933;-84
2024/01/03 02:13:22;;;;;;;;;;;4.10;92.50;;;;;;4111645;28;19950;-85
2024/01/03 02:15:23;;;;;;;;;;;4.10;92.10;;;;;;4153644;28;19921;-84
2024/01/03 02:17:27;;;;;;;;;;;4.00;92.30;;;;;;4126128;28;19918;-85
2024/01/03 02:19:47;;;;;;;;;;;4.10;92.40;;;;;;4125015;28;19917;-85
2024/01/03 02:22:08;;;;;;;;;;;3.90;92.30;;;;;;4145739;28;19918;-84
2024/01/03 02:24:28;;;;;;;;;;;4.00;92.40;;;;;;4156612;28;19924;-85
2024/01/03 02:29:38;;;;;;;;;;;3.80;92.60;;;;;;4142927;28;19913;-87
2024/01/03 02:31:58;;;;;;;;;;;3.90;92.60;;;;;;4134584;28;19925;-86
2024/01/03 02:34:51;;;;;;;;;;;3.90;92.80;;;;;;4131837;28;19921;-85
2024/01/03 02:37:22;;;;;;;;;;;3.80;92.90;;;;;;4130120;28;19922;-84
2024/01/03 02:39:45;;;;;;;;;;;3.90;93.30;;;;;;4129729;28;20532;-84
2024/01/03 02:42:19;;;;;;;;;;;4.20;93.00;;;;;;4147525;28;19932;-85
2024/01/03 02:44:49;;;;;;;;;;;3.90;92.70;;;;;;4145951;28;19924;-83
2024/01/03 02:47:10;;;;;;;;;;;4.00;92.90;;;;;;4132109;28;19952;-85
2024/01/03 02:49:32;;;;;;;;;;;4.00;92.80;;;;;;4127756;28;19918;-86
2024/01/03 02:51:53;;;;;;;;;;;4.00;92.90;;;;;;4147373;28;19913;-85
2024/01/03 02:54:24;;;;;;;;;;;4.00;93.10;;;;;;4148883;28;19921;-87
2024/01/03 02:56:59;;;;;;;;;;;4.00;93.00;;;;;;4147830;28;19925;-84
2024/01/03 02:59:20;;;;;;;;;;;3.90;92.80;;;;;;4141873;28;20024;-85
2024/01/03 03:01:40;;;;;;;;;;;4.10;93.10;;;;;;4145734;28;20016;-84
2024/01/03 03:04:04;;;;;;;;;;;4.20;92.90;;;;;;4138025;28;20011;-86
2024/01/03 03:06:31;;;;;;;;;;;4.20;92.60;;;;;;4148673;28;19927;-87
2024/01/03 03:09:06;;;;;;;;;;;4.20;93.00;;;;;;4131485;28;19925;-85
2024/01/03 03:11:41;;;;;;;;;;;4.30;92.90;;;;;;4135046;28;19982;-84
2024/01/03 03:13:47;;;;;;;;;;;4.40;92.90;;;;;;4134094;28;19918;-85
2024/01/03 03:15:48;;;;;;;;;;;4.30;92.80;;;;;;4155799;23;19940;-84
2024/01/03 03:18:02;;;;;;;;;;;4.50;92.80;;;;;;4131180;28;20449;-86
2024/01/03 03:20:05;;;;;;;;;;;4.40;92.60;;;;;;4128824;28;19989;-86
2024/01/03 03:22:26;;;;;;;;;;;4.50;92.50;;;;;;4115015;28;20502;-85
2024/01/03 03:24:56;;;;;;;;;;;4.60;92.50;;;;;;4117809;28;20384;-87
2024/01/03 03:27:27;;;;;;;;;;;4.60;92.60;;;;;;4131696;28;20026;-84
2024/01/03 03:29:38;;;;;;;;;;;4.60;92.30;;;;;;4112737;28;20297;-86
2024/01/03 03:31:58;;;;;;;;;;;4.80;92.30;;;;;;4129858;28;19953;-84
2024/01/03 03:34:19;;;;;;;;;;;4.70;92.10;;;;;;4129386;28;19956;-84
2024/01/03 03:36:39;;;;;;;;;;;4.80;91.90;;;;;;4127681;28;19917;-85
2024/01/03 03:39:26;;;;;;;;;;;4.90;92.10;;;;;;4129599;28;19913;-87
2024/01/03 03:41:50;;;;;;;;;;;5.00;91.90;;;;;;4113230;28;20480;-86
2024/01/03 03:46:24;;;;;;;;;;;5.00;91.90;;;;;;2232707;26;20384;-86
2024/01/03 03:48:57;;;;;;;;;;;5.00;91.80;;;;;;4118938;28;19924;-85
2024/01/03 03:51:18;;;;;;;;;;;5.00;91.80;;;;;;4113765;28;19982;-86
2024/01/03 03:53:53;;;;;;;;;;;5.20;91.80;;;;;;4126315;28;19914;-87
2024/01/03 03:56:16;;;;;;;;;;;5.30;91.80;;;;;;4096868;28;19925;-87
2024/01/03 03:58:35;;;;;;;;;;;5.20;91.80;;;;;;4094475;28;20575;-88
2024/01/03 04:00:39;;;;;;;;;;;5.30;91.80;;;;;;4107732;28;20085;-85
2024/01/03 04:03:08;;;;;;;;;;;5.20;91.70;;;;;;4097074;28;19918;-86
2024/01/03 04:05:39;;;;;;;;;;;5.20;91.90;;;;;;4096338;28;20016;-87
2024/01/03 04:08:03;;;;;;;;;;;5.30;91.80;;;;;;4097690;28;20664;-88
2024/01/03 04:10:40;;;;;;;;;;;5.40;91.70;;;;;;4111670;28;19922;-87
2024/01/03 04:13:00;;;;;;;;;;;5.40;91.70;;;;;;4096009;28;20037;-86
2024/01/03 04:18:08;;;;;;;;;;;5.40;91.70;;;;;;4113674;28;20033;-85
2024/01/03 04:20:28;;;;;;;;;;;5.50;91.90;;;;;;4113531;28;19943;-85
2024/01/03 04:22:30;;;;;;;;;;;5.50;91.90;;;;;;4106514;28;20289;-86
2024/01/03 04:24:54;;;;;;;;;;;5.50;92.20;;;;;;4159250;23;19941;-86
2024/01/03 04:27:22;;;;;;;;;;;5.40;92.10;;;;;;4125057;28;19928;-85
2024/01/03 04:29:54;;;;;;;;;;;5.40;91.90;;;;;;4131343;28;19914;-85
2024/01/03 04:32:30;;;;;;;;;;;5.40;92.10;;;;;;4128017;28;19964;-85
2024/01/03 04:35:04;;;;;;;;;;;5.50;92.30;;;;;;4143816;28;19920;-85
2024/01/03 04:37:25;;;;;;;;;;;5.40;92.20;;;;;;4142296;28;19913;-84
2024/01/03 04:39:45;;;;;;;;;;;5.60;92.50;;;;;;4143904;28;19921;-85
2024/01/03 04:42:06;;;;;;;;;;;5.60;92.60;;;;;;4129960;28;19929;-85
2024/01/03 04:44:35;;;;;;;;;;;5.50;92.20;;;;;;4130049;28;19918;-84
2024/01/03 04:46:56;;;;;;;;;;;5.50;92.50;;;;;;4133117;28;19926;-85
2024/01/03 04:49:45;;;;;;;;;;;5.40;92.30;;;;;;4122113;28;20426;-84
2024/01/03 04:52:06;;;;;;;;;;;5.50;92.40;;;;;;4124495;28;19917;-85
2024/01/03 04:54:29;;;;;;;;;;;5.40;92.40;;;;;;4144294;28;19928;-85
2024/01/03 04:56:52;;;;;;;;;;;5.30;92.50;;;;;;4146520;28;20000;-85
2024/01/03 04:59:03;;;;;;;;;;;5.40;92.50;;;;;;4132897;28;19980;-85
2024/01/03 05:01:12;;;;;;;;;;;5.30;92.90;;;;;;4111581;28;20299;-84
2024/01/03 05:03:41;;;;;;;;;;;5.40;93.00;;;;;;4125965;28;20000;-85
2024/01/03 05:05:45;;;;;;;;;;;5.50;93.00;;;;;;4127763;28;19989;-86
2024/01/03 05:07:58;;;;;;;;;;;5.60;92.70;;;;;;4131898;28;19922;-84
2024/01/03 05:10:08;;;;;;;;;;;5.50;92.80;;;;;;4128164;28;19943;-85
2024/01/03 05:12:23;;;;;;;;;;;5.40;92.80;;;;;;4128395;28;20037;-86
2024/01/03 05:14:35;;;;;;;;;;;5.60;92.80;;;;;;4124985;28;19961;-85
2024/01/03 05:16:56;;;;;;;;;;;5.50;92.90;;;;;;4139206;28;19927;-85
2024/01/03 05:21:55;;;;;;;;;;;5.50;93.00;;;;;;4144549;28;19922;-85
2024/01/03 05:24:16;;;;;;;;;;;5.50;93.10;;;;;;4138324;28;19921;-84
2024/01/03 05:26:18;;;;;;;;;;;5.60;93.00;;;;;;4111384;28;20379;-85
2024/01/03 05:28:39;;;;;;;;;;;5.40;93.00;;;;;;4139101;28;19925;-85
2024/01/03 05:31:03;;;;;;;;;;;5.60;93.10;;;;;;4124830;28;19929;-85
2024/01/03 05:33:24;;;;;;;;;;;5.60;93.10;;;;;;4143944;28;19917;-85
2024/01/03 05:35:47;;;;;;;;;;;5.70;93.00;;;;;;4130441;28;19922;-86
2024/01/03 05:38:08;;;;;;;;;;;5.70;93.00;;;;;;4127910;28;19914;-85
2024/01/03 05:40:55;;;;;;;;;;;5.80;93.00;;;;;;4130557;28;19921;-84
2024/01/03 05:43:24;;;;;;;;;;;5.60;92.90;;;;;;4123140;28;22520;-85
2024/01/03 05:45:45;;;;;;;;;;;5.60;93.10;;;;;;4143088;28;21318;-85
2024/01/03 05:48:19;;;;;;;;;;;5.70;93.00;;;;;;4100404;28;19953;-84
2024/01/03 05:50:24;;;;;;;;;;;5.70;93.00;;;;;;4123678;28;19914;-85
2024/01/03 05:53:02;;;;;;;;;;;5.80;93.10;;;;;;4108320;28;19952;-83
2024/01/03 05:55:26;;;;;;;;;;;5.80;92.80;;;;;;4130390;28;19921;-85
2024/01/03 05:57:54;;;;;;;;;;;5.90;93.00;;;;;;4104520;28;20021;-84
2024/01/03 06:00:30;;;;;;;;;;;6.00;92.70;;;;;;4117109;28;19910;-86
2024/01/03 06:03:02;;;;;;;;;;;6.10;93.00;;;;;;4129096;28;19932;-88
2024/01/03 06:05:22;;;;;;;;;;;6.00;92.60;;;;;;4137955;28;19921;-85
2024/01/03 06:07:44;;;;;;;;;;;6.00;92.50;;;;;;4134227;28;19968;-85
2024/01/03 06:09:45;;;;;;;;;;;6.10;92.90;;;;;;4139970;28;19992;-84
2024/01/03 06:11:59;;;;;;;;;;;6.10;92.40;;;;;;4137946;28;20415;-85
2024/01/03 06:14:00;;;;;;;;;;;6.10;92.60;;;;;;4122300;28;19917;-86
2024/01/03 06:16:12;;;;;;;;;;;6.20;92.50;;;;;;4100354;28;19922;-84
2024/01/03 06:18:13;;;;;;;;;;;6.20;92.40;;;;;;4119679;28;20000;-86
2024/01/03 06:20:28;;;;;;;;;;;6.40;92.40;;;;;;4120345;28;19981;-85
2024/01/03 06:22:43;;;;;;;;;;;6.40;92.30;;;;;;4121294;28;19925;-84
2024/01/03 06:24:55;;;;;;;;;;;6.30;92.00;;;;;;4123062;28;19922;-88
2024/01/03 06:27:21;;;;;;;;;;;6.30;92.20;;;;;;4120391;28;20280;-86
2024/01/03 06:29:35;;;;;;;;;;;6.40;92.20;;;;;;4103316;28;20324;-84
2024/01/03 06:32:05;;;;;;;;;;;6.40;92.10;;;;;;4126926;28;19918;-85
2024/01/03 06:34:25;;;;;;;;;;;6.40;92.00;;;;;;4121994;28;19918;-86
2024/01/03 06:36:51;;;;;;;;;;;6.40;91.90;;;;;;4125117;28;19922;-86
2024/01/03 06:39:20;;;;;;;;;;;6.40;91.80;;;;;;4122640;28;19949;-87
2024/01/03 06:41:51;;;;;;;;;;;6.40;92.00;;;;;;4123688;28;19980;-84
2024/01/03 06:44:29;;;;;;;;;;;6.40;91.80;;;;;;4125531;28;20035;-85
2024/01/03 06:46:51;;;;;;;;;;;6.40;91.80;;;;;;4123712;28;19940;-85
2024/01/03 06:49:08;;;;;;;;;;;6.40;91.90;;;;;;4120736;28;19911;-86
2024/01/03 06:53:38;;;;;;;;;;;6.60;91.90;;;;;;4131056;28;19917;-85
2024/01/03 06:55:40;;;;;;;;;;;6.70;91.80;;;;;;4130736;28;19909;-85
2024/01/03 06:57:42;;;;;;;;;;;6.60;91.80;;;;;;4119923;28;19997;-85
2024/01/03 06:59:58;;;;;;;;;;;6.60;91.70;;;;;;4140274;28;19984;-85
2024/01/03 07:02:28;;;;;;;;;;;6.80;91.70;;;;;;4126077;28;19922;-85
2024/01/03 07:04:45;;;;;;;;;;;6.70;91.70;;;;;;4138057;28;20554;-87
2024/01/03 07:07:32;;;;;;;;;;;6.80;91.70;;;;;;4124193;28;19921;-86
2024/01/03 07:10:18;;;;;;;;;;;6.80;91.70;;;;;;4135256;28;20560;-86
2024/01/03 07:12:47;;;;;;;;;;;6.90;91.80;;;;;;4121587;28;19914;-86
2024/01/03 07:15:17;;;;;;;;;;;6.80;91.70;;;;;;4124910;28;19913;-87
2024/01/03 07:17:40;;;;;;;;;;;7.00;91.80;;;;;;4126288;28;19963;-86
2024/01/03 07:20:06;;;;;;;;;;;7.10;91.80;;;;;;4135811;28;19914;-85
2024/01/03 07:25:49;;;;;;;;;;;7.10;91.70;;;;;;4132979;28;20007;-85
2024/01/03 07:28:29;;;;;;;;;;;7.10;91.60;;;;;;4121771;28;19928;-85
2024/01/03 07:33:40;;;;;;;;;;;7.20;91.60;;;;;;4141991;28;19920;-86
2024/01/03 07:36:21;;;;;;;;;;;7.20;91.50;;;;;;4126939;28;19965;-87
2024/01/03 07:38:45;;;;;;;;;;;7.20;91.50;;;;;;4125223;28;20095;-85
2024/01/03 07:41:05;;;;;;;;;;;7.30;91.40;;;;;;4128664;28;19929;-85
2024/01/03 07:43:26;;;;;;;;;;;7.30;91.40;;;;;;4121439;28;19914;-86
2024/01/03 07:45:31;;;;;;;;;;;7.30;91.40;;;;;;4105066;28;20585;-82
2024/01/03 07:47:45;;;;;;;;;;;7.20;91.30;;;;;;4125034;28;19922;-85
2024/01/03 07:50:00;;;;;;;;;;;7.20;91.30;;;;;;4122777;28;19957;-84
2024/01/03 07:52:01;;;;;;;;;;;7.20;91.30;;;;;;4124826;28;20100;-84
2024/01/03 07:54:03;;;;;;;;;;;7.30;91.20;;;;;;4108256;28;19918;-86
2024/01/03 07:56:24;;;;;;;;;;;7.30;91.20;;;;;;4140333;28;20011;-86
2024/01/03 07:58:57;;;;;;;;;;;;;;;;;;;;;
2024/01/03 08:01:21;;;;;;;;;;;7.30;91.20;;;;;;4141715;28;19925;-86
2024/01/03 08:04:04;;;;;;;;;;;7.40;91.20;;;;;;4128982;28;20291;-85
2024/01/03 08:06:46;;;;;;;;;;;7.30;91.20;;;;;;4126609;28;19920;-86
2024/01/03 08:09:18;;;;;;;;;;;7.30;91.10;;;;;;4127906;28;19917;-86
2024/01/03 08:11:39;;;;;;;;;;;7.40;91.10;;;;;;4127773;28;19917;-84
2024/01/03 08:14:06;;;;;;;;;;;7.40;91.10;;;;;;4144315;28;19960;-87
2024/01/03 08:16:25;;;;;;;;;;;7.30;91.10;;;;;;4122130;28;19922;-89
2024/01/03 08:18:35;;;;;;;;;;;7.40;91.10;;;;;;4125881;28;19917;-86
2024/01/03 08:20:57;;;;;;;;;;;7.30;91.00;;;;;;4125709;28;19914;-87
2024/01/03 08:23:04;;;;;;;;;;;7.30;91.00;;;;;;4126576;28;19975;-87
2024/01/03 08:25:31;;;;;;;;;;;7.40;91.00;;;;;;4127797;28;19953;-88
2024/01/03 08:27:52;;;;;;;;;;;7.40;91.00;;;;;;4143136;28;19914;-88
2024/01/03 08:30:12;;;;;;;;;;;7.40;90.90;;;;;;4125143;28;19918;-87
2024/01/03 08:33:03;;;;;;;;;;;7.30;91.00;;;;;;4126067;28;19922;-87
2024/01/03 08:35:26;;;;;;;;;;;7.40;91.00;;;;;;4123007;28;20045;-88
2024/01/03 08:37:53;;;;;;;;;;;7.40;90.90;;;;;;4129771;28;19917;-88
2024/01/03 08:39:56;;;;;;;;;;;7.30;90.80;;;;;;4140003;28;20024;-88
2024/01/03 08:41:57;;;;;;;;;;;7.50;90.90;;;;;;4143805;28;19917;-90
2024/01/03 08:44:14;;;;;;;;;;;7.40;90.90;;;;;;4120489;28;20017;-88
2024/01/03 08:46:18;;;;;;;;;;;7.40;90.90;;;;;;4125154;28;19920;-88
2024/01/03 08:48:21;;;;;;;;;;;7.50;90.90;;;;;;4108946;28;20009;-86
2024/01/03 08:50:22;;;;;;;;;;;7.40;90.90;;;;;;4137183;28;19975;-86
2024/01/03 08:52:28;;;;;;;;;;;7.50;90.90;;;;;;4126121;28;19969;-88
2024/01/03 08:54:36;;;;;;;;;;;7.50;90.90;;;;;;4140034;28;19935;-87
2024/01/03 08:56:42;;;;;;;;;;;7.40;90.90;;;;;;4110454;28;19981;-88
2024/01/03 08:59:05;;;;;;;;;;;7.50;90.90;;;;;;4120196;28;19983;-88
2024/01/03 09:01:27;;;;;;;;;;;7.50;90.90;;;;;;4127487;28;19921;-87
2024/01/03 09:03:54;;;;;;;;;;;7.40;90.80;;;;;;4127365;28;19913;-88
2024/01/03 09:06:18;;;;;;;;;;;7.40;90.80;;;;;;4128208;28;20075;-87
2024/01/03 09:08:39;;;;;;;;;;;7.40;90.80;;;;;;4139234;28;20016;-88
2024/01/03 09:11:00;;;;;;;;;;;7.40;90.80;;;;;;4125792;28;19957;-85
2024/01/03 09:13:49;;;;;;;;;;;7.50;90.80;;;;;;4106243;28;19969;-86
2024/01/03 09:15:50;;;;;;;;;;;7.50;90.70;;;;;;4136740;28;19921;-87
2024/01/03 09:18:07;;;;;;;;;;;7.50;90.70;;;;;;4125449;28;19968;-89
2024/01/03 09:20:23;;;;;;;;;;;7.50;90.70;;;;;;4118096;28;20446;-87
2024/01/03 09:22:27;;;;;;;;;;;7.50;90.70;;;;;;4102696;28;20001;-87
2024/01/03 09:24:48;;;;;;;;;;;7.50;90.70;;;;;;4134412;28;20008;-88
2024/01/03 09:27:12;;;;;;;;;;;7.50;90.70;;;;;;4135641;28;19959;-86
2024/01/03 09:29:32;;;;;;;;;;;7.50;90.70;;;;;;4126103;28;19918;-89
2024/01/03 09:32:05;;;;;;;;;;;7.50;90.70;;;;;;4148633;28;19924;-87
2024/01/03 09:34:25;;;;;;;;;;;7.50;90.70;;;;;;4146862;28;19984;-86
2024/01/03 09:36:49;;;;;;;;;;;7.60;90.70;;;;;;4144675;28;19910;-87
2024/01/03 09:39:35;;;;;;;;;;;7.60;90.70;;;;;;4153179;28;19928;-90
2024/01/03 09:41:59;;;;;;;;;;;7.50;90.60;;;;;;4145225;28;19925;-91
2024/01/03 09:44:35;;;;;;;;;;;;;;;;;;;;;
2024/01/03 09:46:49;;;;;;;;;;;7.50;90.60;;;;;;4160902;28;19913;-90
2024/01/03 09:48:58;;;;;;;;;;;7.60;90.70;;;;;;4161499;28;19914;-91
2024/01/03 09:53:59;;;;;;;;;;;7.50;90.70;;;;;;4137107;28;19906;-92
2024/01/03 09:56:05;;;;;;;;;;;7.60;90.70;;;;;;4276237;23;19957;-90
2024/01/03 09:58:42;;;;;;;;;;;7.60;90.70;;;;;;4161506;28;19921;-91
2024/01/03 10:01:04;;;;;;;;;;;7.60;90.70;;;;;;4132492;28;19933;-92
2024/01/03 10:03:32;;;;;;;;;;;7.60;90.70;;;;;;4157452;28;19959;-90
2024/01/03 10:06:27;;;;;;;;;;;7.50;90.60;;;;;;4128999;28;20096;-87
2024/01/03 10:09:03;;;;;;;;;;;7.60;90.70;;;;;;4127445;28;20286;-88
2024/01/03 10:11:24;;;;;;;;;;;7.60;90.60;;;;;;4108300;28;19915;-87
2024/01/03 10:13:42;;;;;;;;;;;7.60;90.60;;;;;;4106771;28;19921;-86
2024/01/03 10:15:48;;;;;;;;;;;7.60;90.60;;;;;;4106325;28;19918;-87
2024/01/03 10:18:06;;;;;;;;;;;7.60;90.60;;;;;;4112697;28;20000;-88
2024/01/03 10:20:34;;;;;;;;;;;7.70;90.70;;;;;;4110890;28;19926;-87
2024/01/03 10:23:11;;;;;;;;;;;7.60;90.60;;;;;;4131732;28;19925;-88
2024/01/03 10:25:42;;;;;;;;;;;7.60;90.60;;;;;;4122882;28;20005;-87
2024/01/03 10:28:06;;;;;;;;;;;7.60;90.60;;;;;;4124076;28;19918;-87
2024/01/03 10:30:32;;;;;;;;;;;7.60;90.70;;;;;;4124362;28;19914;-89
2024/01/03 10:33:13;;;;;;;;;;;7.50;90.50;;;;;;4109464;28;19930;-89
2024/01/03 10:35:35;;;;;;;;;;;7.50;90.50;;;;;;4125147;28;19961;-90
2024/01/03 10:38:05;;;;;;;;;;;7.70;90.60;;;;;;4123646;28;19928;-87
2024/01/03 10:40:10;;;;;;;;;;;7.60;90.90;;;;;;4096281;28;19920;-89
2024/01/03 10:42:25;;;;;;;;;;;7.60;90.60;;;;;;4095803;28;19918;-87
2024/01/03 10:44:37;;;;;;;;;;;7.60;90.50;;;;;;4084510;28;19922;-87
2024/01/03 10:46:48;;;;;;;;;;;7.60;90.50;;;;;;4097927;28;20397;-90
2024/01/03 11:06:22;;;;;;;;;;;7.60;90.40;;;;;;4096750;28;19937;-88
2024/01/03 11:14:30;;;;;;;;;;;7.60;90.40;;;;;;4304530;23;20269;-86
2024/01/03 11:16:38;;;;;;;;;;;7.70;90.40;;;;;;4124891;28;20567;-86
2024/01/03 11:18:41;;;;;;;;;;;7.60;90.40;;;;;;4134305;28;20525;-86
2024/01/03 11:20:42;;;;;;;;;;;7.60;90.30;;;;;;4134617;28;20065;-87
2024/01/03 11:22:56;;;;;;;;;;;7.60;90.30;;;;;;4136149;28;19965;-86
2024/01/03 11:24:59;;;;;;;;;;;7.60;90.30;;;;;;4103195;28;20375;-86
2024/01/03 11:27:23;;;;;;;;;;;7.70;90.30;;;;;;4133877;28;19977;-87
2024/01/03 11:29:36;;;;;;;;;;;7.60;90.20;;;;;;4135980;28;19917;-86
2024/01/03 11:31:55;;;;;;;;;;;7.60;90.20;;;;;;4135271;28;20255;-86
2024/01/03 11:33:55;;;;;;;;;;;7.60;90.20;;;;;;4131926;28;20558;-87
2024/01/03 11:35:56;;;;;;;;;;;7.70;90.20;;;;;;4101342;28;19914;-86
2024/01/03 11:37:57;;;;;;;;;;;7.60;90.10;;;;;;4120490;28;20082;-86
2024/01/03 11:40:00;;;;;;;;;;;7.70;90.10;;;;;;4135678;28;19925;-86
2024/01/03 11:42:04;;;;;;;;;;;7.60;90.10;;;;;;4122810;28;19921;-86
2024/01/03 11:44:05;;;;;;;;;;;7.70;90.00;;;;;;4135474;28;20339;-86
2024/01/03 11:46:09;;;;;;;;;;;7.50;90.00;;;;;;4117432;28;20005;-86
2024/01/03 11:48:12;;;;;;;;;;;7.60;89.90;;;;;;4109735;28;19922;-86
2024/01/03 11:50:14;;;;;;;;;;;7.50;90.00;;;;;;4132356;28;19929;-86
2024/01/03 11:52:14;;;;;;;;;;;7.50;90.00;;;;;;4117756;28;19921;-86
2024/01/03 11:54:15;;;;;;;;;;;7.50;90.00;;;;;;4117613;28;19926;-87
2024/01/03 11:56:31;;;;;;;;;;;7.50;89.90;;;;;;4118781;28;20401;-86
2024/01/03 11:58:34;;;;;;;;;;;7.50;89.80;;;;;;4102619;28;19918;-86
2024/01/03 12:00:35;;;;;;;;;;;7.50;89.90;;;;;;4122023;28;19998;-87
2024/01/03 12:02:35;;;;;;;;;;;7.50;89.90;;;;;;4133299;28;20013;-86
2024/01/03 12:04:36;;;;;;;;;;;7.50;89.70;;;;;;4133505;28;20008;-86
2024/01/03 12:06:37;;;;;;;;;;;7.50;89.80;;;;;;4136537;28;20028;-86
2024/01/03 12:08:37;;;;;;;;;;;7.40;89.40;;;;;;4118569;28;19924;-86
2024/01/03 12:10:39;;;;;;;;;;;7.40;89.70;;;;;;4118331;28;19926;-86
2024/01/03 12:12:40;;;;;;;;;;;7.40;89.40;;;;;;4118146;28;20400;-87
2024/01/03 12:14:48;;;;;;;;;;;7.40;89.60;;;;;;4131091;28;19948;-85
2024/01/03 12:16:53;;;;;;;;;;;7.40;89.50;;;;;;4131332;28;19918;-86
2024/01/03 12:18:54;;;;;;;;;;;7.50;89.40;;;;;;4126678;28;20291;-87
2024/01/03 12:20:54;;;;;;;;;;;7.40;89.20;;;;;;4118777;28;19914;-87
2024/01/03 12:23:05;;;;;;;;;;;7.40;89.20;;;;;;4132825;28;19917;-86
2024/01/03 12:25:05;;;;;;;;;;;7.40;89.10;;;;;;4129907;28;20384;-87
2024/01/03 12:27:06;;;;;;;;;;;7.40;89.00;;;;;;4127377;28;20016;-85
2024/01/03 12:29:07;;;;;;;;;;;7.50;89.00;;;;;;4104182;28;19918;-85
2024/01/03 12:31:17;;;;;;;;;;;7.40;88.90;;;;;;4114855;28;19929;-86
2024/01/03 12:33:18;;;;;;;;;;;7.30;88.90;;;;;;4114718;28;19941;-85
2024/01/03 12:35:18;;;;;;;;;;;7.40;88.30;;;;;;4136923;28;19921;-85
2024/01/03 12:37:19;;;;;;;;;;;7.30;88.40;;;;;;4136358;28;19946;-85
2024/01/03 12:39:19;;;;;;;;;;;7.40;88.60;;;;;;4119749;28;19937;-88
2024/01/03 12:43:34;;;;;;;;;;;7.30;88.30;;;;;;4393720;23;20416;-86
2024/01/03 12:46:12;;;;;;;;;;;7.30;88.40;;;;;;4089428;28;20500;-85
2024/01/03 12:48:16;;;;;;;;;;;7.20;88.30;;;;;;4090166;28;20790;-83
2024/01/03 12:50:22;;;;;;;;;;;7.30;88.40;;;;;;4092162;28;20442;-84
2024/01/03 12:52:46;;;;;;;;;;;7.20;88.20;;;;;;4076283;29;19938;-84
2024/01/03 12:55:09;;;;;;;;;;;7.20;88.00;;;;;;4105915;28;19946;-85
2024/01/03 12:57:11;;;;;;;;;;;7.30;88.00;;;;;;4026979;29;20410;-87
2024/01/03 12:59:31;;;;;;;;;;;7.20;88.10;;;;;;4086840;28;19918;-84
2024/01/03 13:06:50;;;;;;;;;;;7.20;87.80;;;;;;4109534;28;19946;-84
2024/01/03 13:11:24;;;;;;;;;;;7.10;87.20;;;;;;4102343;28;19918;-85
2024/01/03 13:13:38;;;;;;;;;;;7.10;86.80;;;;;;4093974;28;19915;-85
2024/01/03 13:15:43;;;;;;;;;;;7.20;87.20;;;;;;4108810;28;20354;-85
2024/01/03 13:29:03;;;;;;;;;;;7.00;87.00;;;;;;4121843;28;20025;-85
2024/01/03 13:31:05;;;;;;;;;;;6.90;86.40;;;;;;4106397;28;19918;-84
2024/01/03 13:36:54;;;;;;;;;;;6.90;86.50;;;;;;4054104;29;19919;-87
2024/01/03 13:39:06;;;;;;;;;;;6.80;86.10;;;;;;4043278;29;19943;-84
2024/01/03 13:44:06;;;;;;;;;;;6.80;86.00;;;;;;4081763;28;19973;-86
2024/01/03 13:46:39;;;;;;;;;;;6.80;85.80;;;;;;4110715;28;19922;-85
2024/01/03 13:48:44;;;;;;;;;;;6.80;86.00;;;;;;4080215;28;19922;-86
2024/01/03 13:51:07;;;;;;;;;;;6.80;86.00;;;;;;4095285;28;20147;-86
2024/01/03 13:56:07;;;;;;;;;;;6.70;85.80;;;;;;4639902;23;20491;-88
2024/01/03 13:58:35;;;;;;;;;;;6.70;85.80;;;;;;4092026;28;19922;-86
2024/01/03 14:03:31;;;;;;;;;;;6.60;85.60;;;;;;4098669;28;19930;-84
2024/01/03 14:05:49;;;;;;;;;;;6.60;85.60;;;;;;4081561;28;20672;-85
2024/01/03 14:08:06;;;;;;;;;;;6.60;85.40;;;;;;4076200;29;19930;-85
2024/01/03 14:10:07;;;;;;;;;;;6.50;85.30;;;;;;4065387;29;19919;-87
2024/01/03 14:12:17;;;;;;;;;;;6.50;85.50;;;;;;4082539;29;20101;-85
2024/01/03 14:14:29;;;;;;;;;;;6.50;85.30;;;;;;4098211;28;19919;-89
2024/01/03 14:16:42;;;;;;;;;;;6.50;85.40;;;;;;4065405;29;19993;-83
2024/01/03 14:18:45;;;;;;;;;;;6.50;85.30;;;;;;4065330;29;19925;-85
2024/01/03 14:20:49;;;;;;;;;;;6.50;85.10;;;;;;4100006;28;20364;-86
2024/01/03 14:22:51;;;;;;;;;;;6.50;85.30;;;;;;4100499;28;19926;-84
2024/01/03 14:24:53;;;;;;;;;;;6.30;85.30;;;;;;4096336;28;19919;-85
2024/01/03 14:26:56;;;;;;;;;;;6.50;85.20;;;;;;4078657;29;19951;-88
2024/01/03 14:29:13;;;;;;;;;;;6.40;85.00;;;;;;4094654;28;19926;-84
2024/01/03 14:31:34;;;;;;;;;;;6.30;84.80;;;;;;4082367;28;19918;-84
2024/01/03 14:33:41;;;;;;;;;;;6.40;85.00;;;;;;4091288;28;20105;-84
2024/01/03 14:35:47;;;;;;;;;;;6.30;84.70;;;;;;4097167;28;20455;-84
2024/01/03 14:37:47;;;;;;;;;;;6.30;84.60;;;;;;4096959;28;20443;-86
2024/01/03 14:39:50;;;;;;;;;;;6.30;84.60;;;;;;4089972;29;19923;-87
2024/01/03 14:41:51;;;;;;;;;;;6.20;84.50;;;;;;4091397;28;19923;-85
2024/01/03 14:46:05;;;;;;;;;;;6.10;84.40;;;;;;4257922;23;19925;-85
2024/01/03 14:48:14;;;;;;;;;;;6.10;84.20;;;;;;4133174;28;19921;-83
2024/01/03 14:50:18;;;;;;;;;;;6.10;84.30;;;;;;4127837;28;19921;-86
2024/01/03 14:52:22;;;;;;;;;;;6.00;84.10;;;;;;4159293;28;19913;-89
2024/01/03 14:54:37;;;;;;;;;;;5.90;83.90;;;;;;4140431;28;20458;-87
2024/01/03 14:57:03;;;;;;;;;;;6.00;84.10;;;;;;4135773;28;19921;-85
2024/01/03 14:59:11;;;;;;;;;;;5.90;84.00;;;;;;4120431;28;19921;-84
2024/01/03 15:01:20;;;;;;;;;;;6.00;84.00;;;;;;4147106;28;19927;-87
2024/01/03 15:03:27;;;;;;;;;;;6.00;84.10;;;;;;4126581;28;20569;-86